Time;durP1;ratioP1;P1;durP2;ratioP2;P2;SDS_P1;SDS_P2;PMS_P1;PMS_P2;Temp;Humidity;BMP_temperature;BMP_pressure;BME280_temperature;BME280_humidity;BME280_pressure;Samples;Min_cycle;Max_cycle;Signal;HPM_P1;HPM_P2
2023/09/20 00:00:58;;;;;;;11.75;4.35;;;16.50;99.90;;;;;;5048484;28;20132;-68
2023/09/20 00:03:25;;;;;;;12.95;4.50;;;16.50;99.90;;;;;;5050284;28;20053;-67
2023/09/20 00:05:51;;;;;;;11.20;4.00;;;16.60;99.90;;;;;;5031354;28;20088;-68
2023/09/20 00:08:18;;;;;;;13.15;4.50;;;16.50;99.90;;;;;;5050676;28;20127;-69
2023/09/20 00:10:45;;;;;;;11.50;4.18;;;16.60;99.90;;;;;;5036064;28;20052;-69
2023/09/20 00:13:11;;;;;;;11.52;4.43;;;16.60;99.90;;;;;;5031535;28;20048;-69
2023/09/20 00:15:42;;;;;;;11.50;4.68;;;16.60;99.90;;;;;;5033046;28;20068;-68
2023/09/20 00:18:08;;;;;;;;;;;16.60;99.90;;;;;;5047871;28;20057;-68
2023/09/20 00:20:35;;;;;;;14.10;4.35;;;16.60;99.90;;;;;;5047848;28;19931;-68
2023/09/20 00:23:02;;;;;;;13.57;4.28;;;16.60;99.90;;;;;;5049491;28;20131;-69
2023/09/20 00:25:28;;;;;;;11.63;4.78;;;16.60;99.90;;;;;;5049923;28;20529;-69
2023/09/20 00:27:54;;;;;;;13.70;4.47;;;16.60;99.90;;;;;;5036422;28;20045;-69
2023/09/20 00:30:20;;;;;;;12.20;4.22;;;16.60;99.90;;;;;;5052207;28;20551;-69
2023/09/20 00:32:46;;;;;;;13.23;4.90;;;16.60;99.90;;;;;;5058814;28;21395;-68
2023/09/20 00:35:17;;;;;;;15.07;5.50;;;16.60;99.90;;;;;;5059117;28;20059;-69
2023/09/20 00:37:45;;;;;;;12.27;4.40;;;16.60;99.90;;;;;;5052845;28;20096;-68
2023/09/20 00:40:21;;;;;;;11.98;4.07;;;16.60;99.90;;;;;;5037501;28;20058;-69
2023/09/20 00:42:50;;;;;;;17.75;5.40;;;16.60;99.90;;;;;;5053789;28;20072;-68
2023/09/20 00:45:18;;;;;;;14.75;4.32;;;16.60;99.90;;;;;;5036956;28;20053;-68
2023/09/20 00:47:48;;;;;;;16.17;4.47;;;16.60;99.90;;;;;;5053887;28;20048;-68
2023/09/20 00:50:15;;;;;;;18.70;4.70;;;16.60;99.90;;;;;;5058723;28;20351;-68
2023/09/20 00:52:42;;;;;;;13.05;4.70;;;16.60;99.90;;;;;;5036683;28;20057;-68
2023/09/20 00:55:20;;;;;;;15.98;5.03;;;16.60;99.90;;;;;;5056660;28;20140;-68
2023/09/20 00:57:48;;;;;;;15.52;4.57;;;16.70;99.90;;;;;;5054771;28;20045;-68
2023/09/20 01:00:21;;;;;;;17.55;4.80;;;16.70;99.90;;;;;;5057080;28;20047;-69
2023/09/20 01:02:57;;;;;;;18.45;5.32;;;16.70;99.90;;;;;;5057906;28;20052;-68
2023/09/20 01:05:26;;;;;;;14.00;5.00;;;16.70;99.90;;;;;;5063854;28;20063;-68
2023/09/20 01:07:59;;;;;;;15.52;4.57;;;16.70;99.90;;;;;;5056338;28;20064;-68
2023/09/20 01:10:26;;;;;;;16.48;4.57;;;16.70;99.90;;;;;;5062209;28;20057;-68
2023/09/20 01:12:58;;;;;;;15.25;4.57;;;16.70;99.90;;;;;;5063820;28;20063;-68
2023/09/20 01:15:26;;;;;;;13.63;4.40;;;16.70;99.90;;;;;;5041484;28;20052;-68
2023/09/20 01:17:57;;;;;;;15.63;5.35;;;16.70;99.90;;;;;;5052361;28;20064;-68
2023/09/20 01:20:27;;;;;;;10.52;4.60;;;16.70;99.90;;;;;;5059324;28;20048;-68
2023/09/20 01:22:56;;;;;;;20.85;5.13;;;16.70;99.90;;;;;;5040108;28;20501;-68
2023/09/20 01:25:23;;;;;;;13.65;4.88;;;16.70;99.90;;;;;;5041026;28;20156;-68
2023/09/20 01:27:50;;;;;;;16.00;5.20;;;16.70;99.90;;;;;;5039692;28;20048;-68
2023/09/20 01:30:17;;;;;;;15.68;5.72;;;16.70;99.90;;;;;;5040870;28;20048;-68
2023/09/20 01:32:43;;;;;;;12.80;4.05;;;16.70;99.90;;;;;;5054101;28;20128;-68
2023/09/20 01:35:10;;;;;;;13.43;4.53;;;16.70;99.90;;;;;;5039060;28;20052;-68
2023/09/20 01:37:37;;;;;;;16.20;4.88;;;16.70;99.90;;;;;;5094138;28;20102;-68
2023/09/20 01:40:08;;;;;;;14.25;4.68;;;16.70;99.90;;;;;;5047712;28;20056;-68
2023/09/20 01:42:34;;;;;;;;;;;16.70;99.90;;;;;;5041955;28;20072;-68
2023/09/20 01:45:03;;;;;;;15.63;4.45;;;16.70;99.90;;;;;;5053961;28;20705;-68
2023/09/20 01:47:28;;;;;;;13.45;4.57;;;16.70;99.90;;;;;;5061347;28;20048;-68
2023/09/20 01:49:54;;;;;;;13.82;4.03;;;16.70;99.90;;;;;;5064123;28;20395;-69
2023/09/20 01:52:20;;;;;;;14.00;4.15;;;16.70;99.90;;;;;;5054105;28;20052;-69
2023/09/20 01:54:46;;;;;;;17.08;4.40;;;16.70;99.90;;;;;;5052604;28;20052;-68
2023/09/20 01:57:12;;;;;;;14.75;4.18;;;16.70;99.90;;;;;;5042173;28;20060;-69
2023/09/20 01:59:37;;;;;;;16.10;4.85;;;16.70;99.90;;;;;;5054225;28;21288;-68
2023/09/20 02:02:03;;;;;;;13.23;4.18;;;16.70;99.90;;;;;;5036092;28;20047;-68
2023/09/20 02:04:29;;;;;;;16.80;4.07;;;16.70;99.90;;;;;;5053076;28;20072;-69
2023/09/20 02:06:55;;;;;;;14.85;4.55;;;16.70;99.90;;;;;;5034642;28;20052;-68
2023/09/20 02:09:20;;;;;;;12.70;3.60;;;16.70;99.90;;;;;;5040874;28;20075;-68
2023/09/20 02:11:46;;;;;;;14.80;3.92;;;16.70;99.90;;;;;;5054450;28;20048;-68
2023/09/20 02:14:12;;;;;;;16.73;3.95;;;16.80;99.90;;;;;;5039576;28;20048;-68
2023/09/20 02:16:40;;;;;;;15.73;4.25;;;16.70;99.90;;;;;;5050513;28;20510;-69
2023/09/20 02:19:06;;;;;;;13.40;3.80;;;16.70;99.90;;;;;;5037484;28;20037;-69
2023/09/20 02:21:32;;;;;;;13.15;3.72;;;16.70;99.90;;;;;;5038568;28;20687;-68
2023/09/20 02:23:58;;;;;;;17.05;4.05;;;16.80;99.90;;;;;;5041490;28;20049;-68
2023/09/20 02:26:24;;;;;;;20.40;4.68;;;16.80;99.90;;;;;;5039458;28;20048;-68
2023/09/20 02:28:51;;;;;;;10.45;3.65;;;16.80;99.90;;;;;;5053520;28;20052;-69
2023/09/20 02:31:17;;;;;;;11.77;3.50;;;16.80;99.90;;;;;;5042932;28;20047;-69
2023/09/20 02:33:43;;;;;;;12.25;3.58;;;16.80;99.90;;;;;;5053138;28;20127;-68
2023/09/20 02:36:11;;;;;;;15.48;4.00;;;16.80;99.90;;;;;;5051097;28;20094;-69
2023/09/20 02:38:37;;;;;;;14.50;3.72;;;16.80;99.90;;;;;;5037288;28;20072;-68
2023/09/20 02:41:03;;;;;;;12.90;3.72;;;16.80;99.90;;;;;;5055662;28;20036;-69
2023/09/20 02:43:30;;;;;;;17.35;4.13;;;16.80;99.90;;;;;;5049043;28;20057;-69
2023/09/20 02:45:59;;;;;;;13.40;3.53;;;16.80;99.90;;;;;;5038690;28;20624;-69
2023/09/20 02:48:26;;;;;;;14.30;3.65;;;16.80;99.90;;;;;;5052747;28;20420;-68
2023/09/20 02:50:53;;;;;;;14.88;4.18;;;16.80;99.90;;;;;;5035373;28;20513;-68
2023/09/20 02:53:21;;;;;;;11.13;3.25;;;16.80;99.90;;;;;;5047302;28;20619;-68
2023/09/20 02:55:47;;;;;;;14.43;3.97;;;16.80;99.90;;;;;;5058404;28;20401;-68
2023/09/20 02:58:15;;;;;;;14.60;4.07;;;16.90;99.90;;;;;;5046689;28;20053;-68
2023/09/20 03:00:46;;;;;;;10.73;3.40;;;16.80;99.90;;;;;;5055203;28;20098;-69
2023/09/20 03:03:15;;;;;;;14.13;4.13;;;16.80;99.90;;;;;;5053561;28;20052;-68
2023/09/20 03:05:41;;;;;;;12.13;3.60;;;16.80;99.90;;;;;;5031670;28;20084;-68
2023/09/20 03:08:13;;;;;;;16.48;4.18;;;16.90;99.90;;;;;;5051912;28;20148;-68
2023/09/20 03:10:43;;;;;;;13.27;3.70;;;16.90;99.90;;;;;;5049168;28;20044;-69
2023/09/20 03:13:16;;;;;;;11.18;3.80;;;16.90;99.90;;;;;;5064778;28;20056;-68
2023/09/20 03:15:45;;;;;;;10.50;3.67;;;16.90;99.90;;;;;;5050272;28;20064;-68
2023/09/20 03:18:13;;;;;;;9.77;3.20;;;16.90;99.90;;;;;;5048230;28;20047;-68
2023/09/20 03:20:43;;;;;;;15.55;3.33;;;16.90;99.90;;;;;;5049411;28;20056;-68
2023/09/20 03:23:09;;;;;;;11.40;3.47;;;16.90;99.90;;;;;;5055940;28;20064;-68
2023/09/20 03:25:37;;;;;;;11.15;3.30;;;16.90;99.90;;;;;;5057531;28;20044;-68
2023/09/20 03:28:04;;;;;;;12.65;3.90;;;16.90;99.90;;;;;;5049111;28;20048;-68
2023/09/20 03:30:33;;;;;;;13.27;3.67;;;16.90;99.90;;;;;;5035301;28;20279;-68
2023/09/20 03:33:00;;;;;;;8.45;3.35;;;16.90;99.90;;;;;;5052134;28;20062;-68
2023/09/20 03:35:27;;;;;;;11.00;3.90;;;16.90;99.90;;;;;;5056825;28;20079;-68
2023/09/20 03:37:54;;;;;;;11.82;3.67;;;16.90;99.90;;;;;;5055165;28;20062;-68
2023/09/20 03:40:22;;;;;;;13.20;3.47;;;16.90;99.90;;;;;;5079225;28;20073;-68
2023/09/20 03:42:50;;;;;;;8.68;3.28;;;16.90;99.90;;;;;;5056632;28;20131;-68
2023/09/20 03:45:17;;;;;;;10.75;3.63;;;16.90;99.90;;;;;;5049897;28;20417;-68
2023/09/20 03:47:45;;;;;;;11.85;3.30;;;16.90;99.90;;;;;;5047034;28;20137;-69
2023/09/20 03:50:12;;;;;;;12.40;3.92;;;16.90;99.90;;;;;;5078310;28;20059;-68
2023/09/20 03:52:42;;;;;;;11.70;3.75;;;16.90;99.90;;;;;;5031516;28;20045;-68
2023/09/20 03:55:08;;;;;;;18.15;4.47;;;16.90;99.90;;;;;;5051879;28;20052;-68
2023/09/20 03:57:34;;;;;;;13.75;4.03;;;16.90;99.90;;;;;;5049865;28;20045;-67
2023/09/20 04:00:00;;;;;;;18.35;4.38;;;16.90;99.90;;;;;;5049385;28;20414;-68
2023/09/20 04:02:28;;;;;;;13.85;3.85;;;16.90;99.90;;;;;;5052556;28;20809;-67
2023/09/20 04:04:55;;;;;;;10.63;3.33;;;16.90;99.90;;;;;;5054154;28;20130;-68
2023/09/20 04:07:26;;;;;;;13.43;3.78;;;16.90;99.90;;;;;;5041312;28;20068;-68
2023/09/20 04:09:52;;;;;;;13.05;3.25;;;16.90;99.90;;;;;;5055019;28;20048;-68
2023/09/20 04:12:19;;;;;;;10.90;3.42;;;16.90;99.90;;;;;;5053836;28;20037;-69
2023/09/20 04:14:45;;;;;;;11.98;3.90;;;16.90;99.90;;;;;;5039715;28;20114;-68
2023/09/20 04:17:11;;;;;;;15.13;3.58;;;16.90;99.90;;;;;;5062234;28;20496;-68
2023/09/20 04:19:40;;;;;;;12.02;3.10;;;16.90;99.90;;;;;;5058018;28;20056;-68
2023/09/20 04:22:06;;;;;;;14.73;3.72;;;16.90;99.90;;;;;;5061026;28;20048;-68
2023/09/20 04:24:35;;;;;;;13.93;4.30;;;16.90;99.90;;;;;;5041264;28;20048;-69
2023/09/20 04:27:03;;;;;;;13.82;3.65;;;16.90;99.90;;;;;;5055611;28;20603;-68
2023/09/20 04:29:31;;;;;;;13.77;3.60;;;16.90;99.90;;;;;;5063413;28;20055;-69
2023/09/20 04:31:58;;;;;;;12.20;3.50;;;16.80;99.90;;;;;;5063616;28;20048;-68
2023/09/20 04:34:24;;;;;;;15.20;4.40;;;16.80;99.90;;;;;;5068773;28;20063;-68
2023/09/20 04:36:52;;;;;;;12.38;4.05;;;16.80;99.90;;;;;;5035360;28;20148;-68
2023/09/20 04:39:20;;;;;;;13.85;4.00;;;16.80;99.90;;;;;;5065546;28;20052;-68
2023/09/20 04:41:46;;;;;;;14.65;3.80;;;16.70;99.90;;;;;;5038751;28;20041;-69
2023/09/20 04:44:16;;;;;;;13.05;3.80;;;16.70;99.90;;;;;;5061919;28;20094;-69
2023/09/20 04:46:43;;;;;;;9.52;3.38;;;16.70;99.90;;;;;;5066614;28;20049;-68
2023/09/20 04:49:10;;;;;;;12.45;4.10;;;16.70;99.90;;;;;;5058370;28;20063;-68
2023/09/20 04:51:37;;;;;;;13.05;3.90;;;16.70;99.90;;;;;;5058569;28;20038;-68
2023/09/20 04:54:05;;;;;;;15.40;4.25;;;16.70;99.90;;;;;;5035946;28;20045;-68
2023/09/20 04:56:31;;;;;;;15.40;4.00;;;16.60;99.90;;;;;;5058041;28;20524;-68
2023/09/20 04:58:57;;;;;;;15.30;3.92;;;16.60;99.90;;;;;;5044132;28;20060;-68
2023/09/20 05:01:24;;;;;;;15.63;3.85;;;16.60;99.90;;;;;;5050993;28;20056;-68
2023/09/20 05:03:50;;;;;;;12.57;3.70;;;16.60;99.90;;;;;;5048153;28;20677;-68
2023/09/20 05:06:20;;;;;;;19.08;4.10;;;16.50;99.90;;;;;;5057855;28;20055;-68
2023/09/20 05:08:46;;;;;;;14.15;3.60;;;16.50;99.90;;;;;;5050156;28;20040;-68
2023/09/20 05:11:13;;;;;;;13.00;4.15;;;16.50;99.90;;;;;;5051039;28;20132;-68
2023/09/20 05:13:40;;;;;;;16.20;3.97;;;16.40;99.90;;;;;;5033854;28;20535;-68
2023/09/20 05:16:07;;;;;;;13.15;3.20;;;16.40;99.90;;;;;;5039628;28;20076;-68
2023/09/20 05:18:33;;;;;;;13.85;3.97;;;16.40;99.90;;;;;;5086536;28;20048;-68
2023/09/20 05:20:59;;;;;;;10.77;3.63;;;16.40;99.90;;;;;;5050548;28;20049;-68
2023/09/20 05:23:25;;;;;;;11.93;3.70;;;16.40;99.90;;;;;;5049011;28;20496;-68
2023/09/20 05:25:51;;;;;;;11.68;3.45;;;16.40;99.90;;;;;;5077669;28;20055;-66
2023/09/20 05:28:17;;;;;;;13.88;3.85;;;16.40;99.90;;;;;;5077328;28;20903;-69
2023/09/20 05:30:46;;;;;;;15.52;3.72;;;16.30;99.90;;;;;;5052550;28;20071;-68
2023/09/20 05:33:13;;;;;;;19.02;3.80;;;16.30;99.90;;;;;;5088128;28;20033;-68
2023/09/20 05:35:42;;;;;;;15.20;3.65;;;16.30;99.90;;;;;;5052962;28;20383;-69
2023/09/20 05:38:10;;;;;;;14.10;3.63;;;16.30;99.90;;;;;;5053275;28;20162;-68
2023/09/20 05:40:37;;;;;;;11.82;3.85;;;16.30;99.90;;;;;;5061592;28;20750;-68
2023/09/20 05:43:04;;;;;;;16.25;4.75;;;16.30;99.90;;;;;;5063604;28;20056;-69
2023/09/20 05:45:35;;;;;;;14.55;4.10;;;16.30;99.90;;;;;;5057301;28;20051;-69
2023/09/20 05:48:02;;;;;;;12.68;3.83;;;16.30;99.90;;;;;;5055449;28;20114;-68
2023/09/20 05:50:34;;;;;;;17.00;3.70;;;16.30;99.90;;;;;;5058445;28;20807;-68
2023/09/20 05:53:06;;;;;;;12.75;3.30;;;16.30;99.90;;;;;;5036666;28;20059;-68
2023/09/20 05:55:33;;;;;;;11.82;3.30;;;16.30;99.90;;;;;;5048021;28;20061;-68
2023/09/20 05:58:02;;;;;;;15.18;4.07;;;16.30;99.90;;;;;;5046367;28;20575;-68
2023/09/20 06:00:29;;;;;;;11.20;3.85;;;16.40;99.90;;;;;;5054324;28;20798;-69
2023/09/20 06:02:57;;;;;;;12.45;3.33;;;16.40;99.90;;;;;;5059440;28;20056;-68
2023/09/20 06:05:24;;;;;;;13.48;3.95;;;16.40;99.90;;;;;;5059058;28;20711;-69
2023/09/20 06:07:51;;;;;;;15.15;3.60;;;16.40;99.90;;;;;;5040067;28;20082;-68
2023/09/20 06:10:18;;;;;;;13.77;3.25;;;16.40;99.90;;;;;;5050253;28;20053;-68
2023/09/20 06:12:48;;;;;;;12.98;3.60;;;16.40;99.90;;;;;;5031401;28;20052;-67
2023/09/20 06:15:14;;;;;;;12.30;3.17;;;16.40;99.90;;;;;;5048325;28;20052;-68
2023/09/20 06:17:42;;;;;;;12.68;4.50;;;16.40;99.90;;;;;;5061637;28;20119;-67
2023/09/20 06:20:12;;;;;;;11.93;3.33;;;16.40;99.90;;;;;;5082653;28;20110;-68
2023/09/20 06:22:39;;;;;;;13.07;3.28;;;16.40;99.90;;;;;;5064179;28;20101;-68
2023/09/20 06:25:08;;;;;;;11.05;3.42;;;16.40;99.90;;;;;;5050223;28;20163;-68
2023/09/20 06:27:34;;;;;;;12.82;3.08;;;16.40;99.90;;;;;;5054169;28;20412;-69
2023/09/20 06:30:05;;;;;;;13.65;3.28;;;16.40;99.90;;;;;;5061716;28;20102;-69
2023/09/20 06:32:33;;;;;;;10.65;3.22;;;16.40;99.90;;;;;;5045540;28;20737;-69
2023/09/20 06:35:07;;;;;;;12.60;3.38;;;16.40;99.90;;;;;;5065300;28;20057;-69
2023/09/20 06:37:34;;;;;;;11.63;3.30;;;16.40;99.90;;;;;;5056485;28;20140;-68
2023/09/20 06:40:00;;;;;;;15.38;3.67;;;16.40;99.90;;;;;;5055382;28;20060;-68
2023/09/20 06:42:29;;;;;;;8.35;2.83;;;16.40;99.90;;;;;;5044665;28;20049;-69
2023/09/20 06:44:55;;;;;;;10.63;3.20;;;16.40;99.90;;;;;;5045010;28;20061;-69
2023/09/20 06:47:24;;;;;;;10.93;3.15;;;16.40;99.90;;;;;;5044075;28;20040;-68
2023/09/20 06:49:50;;;;;;;12.25;3.00;;;16.50;99.90;;;;;;5064960;28;20071;-71
2023/09/20 06:52:16;;;;;;;10.90;2.88;;;16.40;99.90;;;;;;5083383;28;20398;-69
2023/09/20 06:54:41;;;;;;;9.77;3.60;;;16.50;99.90;;;;;;5041760;28;20074;-69
2023/09/20 06:57:08;;;;;;;15.20;3.83;;;16.50;99.90;;;;;;5042205;28;20048;-68
2023/09/20 06:59:37;;;;;;;11.45;3.30;;;16.50;99.90;;;;;;5058134;28;20041;-69
2023/09/20 07:02:04;;;;;;;9.27;2.70;;;16.50;99.90;;;;;;5043661;28;20375;-69
2023/09/20 07:04:31;;;;;;;9.50;3.10;;;16.50;99.90;;;;;;5061439;28;20067;-68
2023/09/20 07:06:57;;;;;;;11.18;3.08;;;16.50;99.90;;;;;;5060636;28;21024;-69
2023/09/20 07:09:24;;;;;;;11.15;2.83;;;16.50;99.90;;;;;;5056406;28;20122;-69
2023/09/20 07:11:50;;;;;;;8.30;2.53;;;16.60;99.90;;;;;;5038035;28;20167;-68
2023/09/20 07:14:20;;;;;;;10.32;2.88;;;16.60;99.90;;;;;;5057135;28;20051;-68
2023/09/20 07:16:51;;;;;;;10.63;2.67;;;16.60;99.90;;;;;;5085267;28;20129;-69
2023/09/20 07:19:18;;;;;;;;;;;16.60;99.90;;;;;;5040483;28;20052;-69
2023/09/20 07:21:45;;;;;;;9.32;2.97;;;16.60;99.90;;;;;;5057896;28;19924;-68
2023/09/20 07:24:12;;;;;;;13.38;3.17;;;16.60;99.90;;;;;;5041839;28;20135;-69
2023/09/20 07:26:39;;;;;;;12.90;2.50;;;16.60;99.90;;;;;;5038077;28;20111;-68
2023/09/20 07:29:05;;;;;;;12.00;3.13;;;16.70;99.90;;;;;;5058507;28;20691;-69
2023/09/20 07:31:36;;;;;;;15.38;2.95;;;16.70;99.90;;;;;;5039606;28;20576;-68
2023/09/20 07:34:04;;;;;;;9.65;2.85;;;16.70;99.90;;;;;;5055609;28;20623;-68
2023/09/20 07:36:33;;;;;;;10.50;3.00;;;16.70;99.90;;;;;;5041259;28;20482;-69
2023/09/20 07:39:08;;;;;;;11.15;3.58;;;16.70;99.90;;;;;;5055518;28;20497;-69
2023/09/20 07:41:35;;;;;;;9.50;2.90;;;16.80;99.90;;;;;;5037732;28;20135;-68
2023/09/20 07:44:00;;;;;;;7.90;2.80;;;16.80;99.90;;;;;;5051247;28;20049;-69
2023/09/20 07:46:26;;;;;;;13.52;3.30;;;16.80;99.90;;;;;;5051860;28;20106;-69
2023/09/20 07:48:52;;;;;;;10.25;2.78;;;16.90;99.90;;;;;;5051421;28;20488;-69
2023/09/20 07:51:23;;;;;;;7.43;2.55;;;16.90;99.90;;;;;;5078333;28;20048;-68
2023/09/20 07:53:55;;;;;;;;;;;16.90;99.90;;;;;;5051180;28;20045;-69
2023/09/20 07:56:21;;;;;;;12.05;3.22;;;16.90;99.90;;;;;;5047633;28;19931;-69
2023/09/20 07:58:51;;;;;;;12.65;3.33;;;17.10;99.90;;;;;;5048975;28;20025;-69
2023/09/20 08:01:20;;;;;;;9.82;3.00;;;17.10;99.90;;;;;;5045981;28;20052;-69
2023/09/20 08:03:58;;;;;;;12.90;3.00;;;17.20;99.90;;;;;;5045578;28;20049;-68
2023/09/20 08:06:27;;;;;;;10.80;3.17;;;17.30;99.90;;;;;;5056481;28;20057;-69
2023/09/20 08:08:55;;;;;;;10.48;3.20;;;17.30;99.90;;;;;;5053210;28;20521;-69
2023/09/20 08:11:22;;;;;;;11.60;2.78;;;17.40;99.90;;;;;;5037634;28;20218;-68
2023/09/20 08:13:59;;;;;;;9.18;3.40;;;17.50;99.90;;;;;;5068406;28;20071;-69
2023/09/20 08:16:32;;;;;;;10.50;3.55;;;17.50;99.90;;;;;;5049878;28;20507;-68
2023/09/20 08:21:32;;;;;;;7.25;2.67;;;17.70;99.90;;;;;;5052340;28;20131;-69
2023/09/20 09:00:31;;;;;;;9.77;3.30;;;17.70;99.90;;;;;;5055974;28;20045;-69
2023/09/20 09:03:06;;;;;;;8.82;3.38;;;17.70;99.90;;;;;;5042111;28;20080;-69
2023/09/20 09:05:32;;;;;;;9.55;3.00;;;17.70;99.90;;;;;;5050826;28;20048;-69
2023/09/20 09:08:03;;;;;;;10.95;3.20;;;17.70;99.90;;;;;;5052103;28;20110;-68
2023/09/20 09:10:29;;;;;;;10.52;3.45;;;17.70;99.90;;;;;;5058577;28;20507;-69
2023/09/20 09:12:58;;;;;;;8.98;3.42;;;17.70;99.90;;;;;;5067997;28;20061;-69
2023/09/20 09:15:25;;;;;;;8.60;3.47;;;17.70;99.90;;;;;;5049803;28;20391;-69
2023/09/20 09:17:51;;;;;;;11.93;3.53;;;17.70;99.90;;;;;;5048859;28;20061;-69
2023/09/20 09:20:20;;;;;;;8.52;3.13;;;17.70;99.90;;;;;;5054278;28;20056;-68
2023/09/20 09:22:46;;;;;;;10.27;3.65;;;17.70;99.90;;;;;;5056293;28;20106;-68
2023/09/20 09:25:20;;;;;;;11.63;3.28;;;17.70;99.90;;;;;;5055850;28;20053;-69
2023/09/20 09:27:46;;;;;;;11.23;4.03;;;17.70;99.90;;;;;;5057913;28;20572;-69
2023/09/20 09:30:16;;;;;;;10.90;3.90;;;17.70;99.90;;;;;;5038228;28;20061;-68
2023/09/20 09:32:45;;;;;;;9.48;3.58;;;17.70;99.90;;;;;;5039802;28;20516;-69
2023/09/20 09:35:12;;;;;;;10.00;3.13;;;17.80;99.90;;;;;;5058417;28;20546;-69
2023/09/20 09:37:41;;;;;;;7.78;3.10;;;17.70;99.90;;;;;;5036135;28;20053;-69
2023/09/20 09:40:09;;;;;;;10.52;3.42;;;17.80;99.90;;;;;;5087811;28;20052;-68
2023/09/20 09:42:36;;;;;;;8.63;3.42;;;17.80;99.90;;;;;;5050384;28;20053;-68
2023/09/20 09:45:02;;;;;;;12.85;4.20;;;17.80;99.90;;;;;;5056946;28;20099;-69
2023/09/20 09:47:35;;;;;;;13.77;3.95;;;17.80;99.90;;;;;;5061474;28;20055;-69
2023/09/20 09:50:03;;;;;;;12.85;3.42;;;17.80;99.90;;;;;;5063778;28;20132;-68
2023/09/20 09:52:30;;;;;;;9.77;3.70;;;17.90;99.90;;;;;;5043757;28;20044;-68
2023/09/20 09:54:56;;;;;;;13.88;3.75;;;17.90;99.90;;;;;;5038819;28;20048;-69
2023/09/20 09:57:23;;;;;;;14.48;4.65;;;17.90;99.90;;;;;;5058669;28;20048;-68
2023/09/20 09:59:51;;;;;;;7.63;3.35;;;17.90;99.90;;;;;;5040452;28;20056;-68
2023/09/20 10:02:18;;;;;;;7.15;3.90;;;17.90;99.90;;;;;;5091560;28;20051;-69
2023/09/20 10:05:03;;;;;;;8.98;4.13;;;17.90;99.90;;;;;;5085466;28;20055;-69
2023/09/20 10:07:35;;;;;;;8.93;3.78;;;18.00;99.90;;;;;;5058915;28;20099;-69
2023/09/20 10:10:08;;;;;;;9.55;3.85;;;17.90;99.90;;;;;;5052458;28;20444;-70
2023/09/20 10:12:38;;;;;;;9.60;5.13;;;17.90;99.90;;;;;;5049509;28;20052;-69
2023/09/20 10:15:06;;;;;;;9.88;4.45;;;17.90;99.90;;;;;;5051470;28;20080;-69
2023/09/20 10:17:33;;;;;;;12.80;4.78;;;18.00;99.90;;;;;;5050995;28;20052;-70
2023/09/20 10:19:59;;;;;;;8.55;4.20;;;18.00;99.90;;;;;;5064176;28;20044;-69
2023/09/20 10:22:26;;;;;;;7.93;3.97;;;18.00;99.90;;;;;;5063489;28;20048;-69
2023/09/20 10:24:58;;;;;;;8.13;4.40;;;18.00;99.90;;;;;;5057968;28;20502;-69
2023/09/20 10:27:34;;;;;;;9.88;4.43;;;18.00;99.90;;;;;;5052880;28;20134;-69
2023/09/20 10:30:10;;;;;;;9.75;4.50;;;18.10;99.90;;;;;;5055082;28;20080;-69
2023/09/20 10:32:53;;;;;;;8.43;4.10;;;18.10;99.90;;;;;;5047014;28;20052;-69
2023/09/20 10:35:35;;;;;;;8.38;4.15;;;18.00;99.90;;;;;;5065903;28;20092;-70
2023/09/20 10:38:10;;;;;;;10.07;3.83;;;18.10;99.90;;;;;;5053984;28;20045;-69
2023/09/20 10:40:45;;;;;;;11.63;4.38;;;18.10;99.90;;;;;;5051922;28;20128;-69
2023/09/20 10:43:34;;;;;;;8.40;3.70;;;18.10;99.90;;;;;;5085423;28;20040;-69
2023/09/20 10:46:12;;;;;;;6.82;3.60;;;18.10;99.90;;;;;;5047080;28;20053;-69
2023/09/20 10:48:52;;;;;;;9.13;4.15;;;18.10;99.90;;;;;;5050714;28;20045;-69
2023/09/20 10:51:49;;;;;;;12.10;4.13;;;18.10;99.90;;;;;;5038475;28;20064;-70
2023/09/20 10:54:25;;;;;;;9.00;4.53;;;18.10;99.90;;;;;;5053839;28;20080;-69
2023/09/20 10:56:51;;;;;;;7.25;3.42;;;18.10;99.90;;;;;;5070060;28;20056;-68
2023/09/20 10:59:36;;;;;;;8.15;3.90;;;18.10;99.90;;;;;;5035024;28;20055;-68
2023/09/20 11:02:12;;;;;;;8.27;3.85;;;18.10;99.90;;;;;;5057580;28;20084;-70
2023/09/20 11:04:39;;;;;;;7.80;3.75;;;18.20;99.90;;;;;;5056090;28;20126;-69
2023/09/20 11:07:06;;;;;;;10.57;4.30;;;18.10;99.90;;;;;;5037093;28;20049;-69
2023/09/20 11:09:38;;;;;;;8.27;3.85;;;18.20;99.90;;;;;;5051545;28;20123;-69
2023/09/20 11:12:09;;;;;;;7.80;3.47;;;18.20;99.90;;;;;;5036101;28;20126;-69
2023/09/20 11:14:37;;;;;;;7.47;3.67;;;18.20;99.90;;;;;;5046912;28;20049;-70
2023/09/20 11:17:05;;;;;;;9.57;3.33;;;18.20;99.90;;;;;;5054725;28;20579;-70
2023/09/20 11:19:35;;;;;;;10.90;3.45;;;18.20;99.90;;;;;;5034026;28;20056;-70
2023/09/20 11:22:01;;;;;;;8.38;3.28;;;18.20;99.90;;;;;;5032066;28;20084;-70
2023/09/20 11:24:27;;;;;;;7.97;3.25;;;18.20;99.90;;;;;;5037124;28;20072;-70
2023/09/20 11:26:54;;;;;;;6.22;2.88;;;18.30;99.90;;;;;;5054057;28;20080;-68
2023/09/20 11:29:21;;;;;;;6.30;2.95;;;18.30;99.90;;;;;;5049844;28;20071;-69
2023/09/20 11:31:50;;;;;;;9.48;2.70;;;18.30;99.90;;;;;;5034014;28;20495;-68
2023/09/20 11:34:17;;;;;;;6.93;3.05;;;18.30;99.90;;;;;;5053627;28;20056;-70
2023/09/20 11:36:44;;;;;;;8.05;2.70;;;18.40;99.90;;;;;;5052483;28;20040;-70
2023/09/20 11:39:17;;;;;;;7.85;2.83;;;18.40;99.90;;;;;;5033979;28;20075;-70
2023/09/20 11:41:46;;;;;;;6.38;2.83;;;18.40;99.90;;;;;;5057251;28;20436;-70
2023/09/20 11:44:16;;;;;;;11.68;3.30;;;18.40;99.90;;;;;;5058725;28;20096;-70
2023/09/20 11:46:45;;;;;;;6.27;2.50;;;18.40;99.90;;;;;;5035240;28;20053;-70
2023/09/20 11:49:11;;;;;;;8.65;2.75;;;18.40;99.90;;;;;;5054251;28;20396;-70
2023/09/20 11:51:38;;;;;;;7.63;2.85;;;18.40;99.90;;;;;;5037692;28;20043;-70
2023/09/20 11:54:10;;;;;;;6.00;2.83;;;18.50;99.90;;;;;;5046025;28;20096;-69
2023/09/20 11:56:37;;;;;;;7.85;2.92;;;18.50;99.90;;;;;;5052755;28;20094;-70
2023/09/20 11:59:09;;;;;;;7.22;3.00;;;18.50;99.90;;;;;;5031163;28;20056;-70
2023/09/20 12:01:40;;;;;;;8.57;2.90;;;18.60;99.90;;;;;;5046232;28;20057;-70
2023/09/20 12:04:09;;;;;;;11.40;3.83;;;18.60;99.90;;;;;;5052404;28;20060;-69
2023/09/20 12:06:35;;;;;;;8.98;3.72;;;18.60;99.90;;;;;;5046425;28;20887;-68
2023/09/20 12:09:03;;;;;;;7.30;3.85;;;18.60;99.90;;;;;;5036435;28;20056;-69
2023/09/20 12:11:28;;;;;;;8.43;4.20;;;18.60;99.90;;;;;;5048533;28;20540;-69
2023/09/20 12:13:54;;;;;;;8.00;4.20;;;18.60;99.90;;;;;;5054243;28;20049;-68
2023/09/20 12:16:23;;;;;;;9.55;4.28;;;18.60;99.90;;;;;;5048705;28;20068;-68
2023/09/20 12:18:55;;;;;;;9.35;4.57;;;18.50;99.90;;;;;;5056046;28;20083;-68
2023/09/20 12:21:21;;;;;;;9.40;4.18;;;18.60;99.90;;;;;;5054402;28;20048;-68
2023/09/20 12:23:47;;;;;;;8.30;4.13;;;18.60;99.90;;;;;;5060548;28;20051;-68
2023/09/20 12:26:13;;;;;;;9.63;4.63;;;18.60;99.90;;;;;;5058177;28;20584;-68
2023/09/20 12:28:39;;;;;;;11.55;5.00;;;18.60;99.90;;;;;;5046082;28;20194;-68
2023/09/20 12:31:06;;;;;;;9.07;4.70;;;18.70;99.90;;;;;;5053526;28;20656;-68
2023/09/20 12:33:32;;;;;;;9.88;4.72;;;18.70;99.90;;;;;;5057504;28;20110;-68
2023/09/20 12:36:01;;;;;;;8.38;4.28;;;18.70;99.90;;;;;;5058418;28;20263;-68
2023/09/20 12:38:29;;;;;;;7.38;4.05;;;18.70;99.90;;;;;;5059293;28;20072;-69
2023/09/20 12:40:57;;;;;;;8.27;4.47;;;18.70;99.90;;;;;;5036341;28;20438;-68
2023/09/20 12:43:24;;;;;;;11.45;4.03;;;18.70;99.90;;;;;;5054753;28;20773;-67
2023/09/20 12:45:52;;;;;;;8.13;3.53;;;18.70;99.90;;;;;;5051236;28;20433;-67
2023/09/20 12:48:18;;;;;;;8.57;4.28;;;18.70;99.90;;;;;;5054235;28;20394;-67
2023/09/20 12:50:44;;;;;;;6.68;3.25;;;18.70;99.90;;;;;;5045158;28;20045;-67
2023/09/20 12:53:10;;;;;;;8.30;3.25;;;18.70;99.90;;;;;;5056860;28;20041;-67
2023/09/20 12:55:38;;;;;;;8.27;3.33;;;18.70;99.90;;;;;;5052456;28;20771;-67
2023/09/20 12:58:06;;;;;;;8.27;3.70;;;18.70;99.90;;;;;;5051221;28;20402;-67
2023/09/20 13:00:36;;;;;;;7.47;3.35;;;18.70;99.90;;;;;;5038286;28;20045;-67
2023/09/20 13:03:07;;;;;;;12.68;3.88;;;18.80;99.90;;;;;;5048544;28;20056;-67
2023/09/20 13:05:33;;;;;;;;;;;18.80;99.90;;;;;;5053417;28;20106;-67
2023/09/20 13:07:59;;;;;;;8.93;2.95;;;18.80;99.90;;;;;;5054761;28;20317;-68
2023/09/20 13:10:26;;;;;;;6.93;3.00;;;18.90;99.90;;;;;;5044345;28;20079;-68
2023/09/20 13:12:52;;;;;;;10.65;3.08;;;18.90;99.90;;;;;;5043289;28;20391;-68
2023/09/20 13:15:19;;;;;;;8.82;3.05;;;18.90;99.90;;;;;;5060917;28;20424;-68
2023/09/20 13:17:48;;;;;;;7.40;3.03;;;19.00;99.90;;;;;;5045339;28;20040;-68
2023/09/20 13:20:14;;;;;;;10.13;3.50;;;18.90;99.90;;;;;;5039649;28;20150;-68
2023/09/20 13:22:42;;;;;;;8.13;3.28;;;19.00;99.90;;;;;;5057789;28;20573;-69
2023/09/20 13:25:09;;;;;;;11.32;3.22;;;19.00;99.90;;;;;;5055791;28;20048;-68